sensor_id;sensor_type;location;lat;lon;timestamp;P1;durP1;ratioP1;P2;durP2;ratioP2
56136;SDS011;42008;52.934;5.884;2024-03-17T00:01:01;9.43;;;3.27;;
56136;SDS011;42008;52.934;5.884;2024-03-17T00:03:28;8.47;;;3.17;;
56136;SDS011;42008;52.934;5.884;2024-03-17T00:05:57;9.63;;;3.53;;
56136;SDS011;42008;52.934;5.884;2024-03-17T00:08:23;11.20;;;3.17;;
56136;SDS011;42008;52.934;5.884;2024-03-17T00:10:55;10.17;;;3.13;;
56136;SDS011;42008;52.934;5.884;2024-03-17T00:13:22;7.70;;;3.17;;
56136;SDS011;42008;52.934;5.884;2024-03-17T00:15:48;12.03;;;4.30;;
56136;SDS011;42008;52.934;5.884;2024-03-17T00:18:14;15.07;;;7.63;;
56136;SDS011;42008;52.934;5.884;2024-03-17T00:20:40;10.83;;;5.23;;
56136;SDS011;42008;52.934;5.884;2024-03-17T00:23:06;10.87;;;4.97;;
56136;SDS011;42008;52.934;5.884;2024-03-17T00:25:34;9.97;;;5.13;;
56136;SDS011;42008;52.934;5.884;2024-03-17T00:28:00;15.43;;;5.17;;
56136;SDS011;42008;52.934;5.884;2024-03-17T00:30:26;10.13;;;4.97;;
56136;SDS011;42008;52.934;5.884;2024-03-17T00:32:53;11.90;;;5.07;;
56136;SDS011;42008;52.934;5.884;2024-03-17T00:35:19;7.73;;;3.43;;
56136;SDS011;42008;52.934;5.884;2024-03-17T00:37:48;10.57;;;3.73;;
56136;SDS011;42008;52.934;5.884;2024-03-17T00:40:14;11.90;;;4.33;;
56136;SDS011;42008;52.934;5.884;2024-03-17T00:42:41;9.40;;;4.00;;
56136;SDS011;42008;52.934;5.884;2024-03-17T00:45:07;12.23;;;3.87;;
56136;SDS011;42008;52.934;5.884;2024-03-17T00:47:35;12.83;;;4.07;;
56136;SDS011;42008;52.934;5.884;2024-03-17T00:50:01;7.17;;;4.23;;
56136;SDS011;42008;52.934;5.884;2024-03-17T00:52:28;11.60;;;4.80;;
56136;SDS011;42008;52.934;5.884;2024-03-17T00:54:54;13.43;;;5.23;;
56136;SDS011;42008;52.934;5.884;2024-03-17T00:57:20;15.37;;;6.10;;
56136;SDS011;42008;52.934;5.884;2024-03-17T00:59:46;11.57;;;6.43;;
56136;SDS011;42008;52.934;5.884;2024-03-17T01:02:12;16.33;;;5.40;;
56136;SDS011;42008;52.934;5.884;2024-03-17T01:04:42;13.80;;;4.80;;
56136;SDS011;42008;52.934;5.884;2024-03-17T01:07:08;12.27;;;5.13;;
56136;SDS011;42008;52.934;5.884;2024-03-17T01:09:34;10.10;;;4.60;;
56136;SDS011;42008;52.934;5.884;2024-03-17T01:12:00;11.97;;;4.20;;
56136;SDS011;42008;52.934;5.884;2024-03-17T01:14:27;13.73;;;4.10;;
56136;SDS011;42008;52.934;5.884;2024-03-17T01:16:53;11.43;;;3.87;;
56136;SDS011;42008;52.934;5.884;2024-03-17T01:19:19;14.30;;;4.57;;
56136;SDS011;42008;52.934;5.884;2024-03-17T01:21:45;12.97;;;4.07;;
56136;SDS011;42008;52.934;5.884;2024-03-17T01:24:12;10.87;;;4.70;;
56136;SDS011;42008;52.934;5.884;2024-03-17T01:26:38;10.13;;;4.07;;
56136;SDS011;42008;52.934;5.884;2024-03-17T01:29:04;16.53;;;5.63;;
56136;SDS011;42008;52.934;5.884;2024-03-17T01:31:30;13.60;;;5.00;;
56136;SDS011;42008;52.934;5.884;2024-03-17T01:33:56;11.27;;;5.23;;
56136;SDS011;42008;52.934;5.884;2024-03-17T01:36:22;16.17;;;6.97;;
56136;SDS011;42008;52.934;5.884;2024-03-17T01:38:49;21.20;;;7.97;;
56136;SDS011;42008;52.934;5.884;2024-03-17T01:41:15;13.30;;;7.10;;
56136;SDS011;42008;52.934;5.884;2024-03-17T01:43:41;13.50;;;6.67;;
56136;SDS011;42008;52.934;5.884;2024-03-17T01:46:11;13.73;;;5.90;;
56136;SDS011;42008;52.934;5.884;2024-03-17T01:48:38;16.50;;;5.90;;
56136;SDS011;42008;52.934;5.884;2024-03-17T01:51:05;15.40;;;6.50;;
56136;SDS011;42008;52.934;5.884;2024-03-17T01:53:31;14.03;;;5.23;;
56136;SDS011;42008;52.934;5.884;2024-03-17T01:55:57;14.27;;;5.40;;
56136;SDS011;42008;52.934;5.884;2024-03-17T01:58:25;16.33;;;5.63;;
56136;SDS011;42008;52.934;5.884;2024-03-17T02:00:51;18.03;;;6.17;;
56136;SDS011;42008;52.934;5.884;2024-03-17T02:03:17;13.60;;;5.23;;
56136;SDS011;42008;52.934;5.884;2024-03-17T02:05:43;11.93;;;5.30;;
56136;SDS011;42008;52.934;5.884;2024-03-17T02:08:10;15.80;;;5.80;;
56136;SDS011;42008;52.934;5.884;2024-03-17T02:10:39;20.23;;;6.33;;
56136;SDS011;42008;52.934;5.884;2024-03-17T02:13:05;19.47;;;5.97;;
56136;SDS011;42008;52.934;5.884;2024-03-17T02:15:32;20.10;;;6.93;;
56136;SDS011;42008;52.934;5.884;2024-03-17T02:17:58;9.83;;;5.63;;
56136;SDS011;42008;52.934;5.884;2024-03-17T02:20:24;17.63;;;6.50;;
56136;SDS011;42008;52.934;5.884;2024-03-17T02:23:11;12.43;;;5.73;;
56136;SDS011;42008;52.934;5.884;2024-03-17T02:25:37;18.77;;;7.00;;
56136;SDS011;42008;52.934;5.884;2024-03-17T02:28:03;15.43;;;6.10;;
56136;SDS011;42008;52.934;5.884;2024-03-17T02:30:32;14.33;;;6.73;;
56136;SDS011;42008;52.934;5.884;2024-03-17T02:32:58;14.70;;;7.03;;
56136;SDS011;42008;52.934;5.884;2024-03-17T02:35:24;18.67;;;6.80;;
56136;SDS011;42008;52.934;5.884;2024-03-17T02:37:51;13.47;;;6.50;;
56136;SDS011;42008;52.934;5.884;2024-03-17T02:40:17;16.13;;;6.30;;
56136;SDS011;42008;52.934;5.884;2024-03-17T02:42:44;18.70;;;7.23;;
56136;SDS011;42008;52.934;5.884;2024-03-17T02:45:10;19.87;;;7.50;;
56136;SDS011;42008;52.934;5.884;2024-03-17T02:47:37;18.43;;;5.80;;
56136;SDS011;42008;52.934;5.884;2024-03-17T02:50:03;18.67;;;5.97;;
56136;SDS011;42008;52.934;5.884;2024-03-17T02:52:29;12.03;;;5.43;;
56136;SDS011;42008;52.934;5.884;2024-03-17T02:54:55;13.30;;;6.07;;
56136;SDS011;42008;52.934;5.884;2024-03-17T02:57:22;15.10;;;6.43;;
56136;SDS011;42008;52.934;5.884;2024-03-17T02:59:58;16.93;;;6.57;;
56136;SDS011;42008;52.934;5.884;2024-03-17T03:02:24;23.60;;;5.90;;
56136;SDS011;42008;52.934;5.884;2024-03-17T03:04:50;15.13;;;5.77;;
56136;SDS011;42008;52.934;5.884;2024-03-17T03:07:16;14.33;;;5.80;;
56136;SDS011;42008;52.934;5.884;2024-03-17T03:09:43;18.53;;;5.43;;
56136;SDS011;42008;52.934;5.884;2024-03-17T03:12:09;14.63;;;5.50;;
56136;SDS011;42008;52.934;5.884;2024-03-17T03:14:35;10.03;;;5.30;;
56136;SDS011;42008;52.934;5.884;2024-03-17T03:17:01;15.60;;;5.67;;
56136;SDS011;42008;52.934;5.884;2024-03-17T03:19:28;18.70;;;5.87;;
56136;SDS011;42008;52.934;5.884;2024-03-17T03:21:55;16.57;;;5.50;;
56136;SDS011;42008;52.934;5.884;2024-03-17T03:24:21;14.83;;;5.53;;
56136;SDS011;42008;52.934;5.884;2024-03-17T03:26:47;13.40;;;4.93;;
56136;SDS011;42008;52.934;5.884;2024-03-17T03:29:13;12.53;;;5.00;;
56136;SDS011;42008;52.934;5.884;2024-03-17T03:31:39;14.47;;;5.27;;
56136;SDS011;42008;52.934;5.884;2024-03-17T03:34:06;15.13;;;5.37;;
56136;SDS011;42008;52.934;5.884;2024-03-17T03:36:37;14.20;;;5.17;;
56136;SDS011;42008;52.934;5.884;2024-03-17T03:39:03;13.47;;;5.07;;
56136;SDS011;42008;52.934;5.884;2024-03-17T03:41:36;13.83;;;5.17;;
56136;SDS011;42008;52.934;5.884;2024-03-17T03:44:02;17.87;;;5.90;;
56136;SDS011;42008;52.934;5.884;2024-03-17T03:46:28;17.57;;;5.63;;
56136;SDS011;42008;52.934;5.884;2024-03-17T03:48:54;13.97;;;5.90;;
56136;SDS011;42008;52.934;5.884;2024-03-17T03:51:20;14.73;;;5.70;;
56136;SDS011;42008;52.934;5.884;2024-03-17T03:53:46;19.07;;;6.10;;
56136;SDS011;42008;52.934;5.884;2024-03-17T03:56:12;21.23;;;5.60;;
56136;SDS011;42008;52.934;5.884;2024-03-17T03:58:38;15.73;;;5.53;;
56136;SDS011;42008;52.934;5.884;2024-03-17T04:01:08;18.60;;;5.20;;
56136;SDS011;42008;52.934;5.884;2024-03-17T04:03:36;16.63;;;5.50;;
56136;SDS011;42008;52.934;5.884;2024-03-17T04:06:09;17.20;;;6.13;;
56136;SDS011;42008;52.934;5.884;2024-03-17T04:08:36;13.67;;;6.13;;
56136;SDS011;42008;52.934;5.884;2024-03-17T04:11:03;16.67;;;6.30;;
56136;SDS011;42008;52.934;5.884;2024-03-17T04:13:30;16.40;;;5.90;;
56136;SDS011;42008;52.934;5.884;2024-03-17T04:15:56;15.80;;;7.07;;
56136;SDS011;42008;52.934;5.884;2024-03-17T04:18:23;12.73;;;5.57;;
56136;SDS011;42008;52.934;5.884;2024-03-17T04:20:50;17.87;;;5.63;;
56136;SDS011;42008;52.934;5.884;2024-03-17T04:23:16;14.67;;;5.20;;
56136;SDS011;42008;52.934;5.884;2024-03-17T04:25:42;15.47;;;5.07;;
56136;SDS011;42008;52.934;5.884;2024-03-17T04:28:08;18.07;;;5.57;;
56136;SDS011;42008;52.934;5.884;2024-03-17T04:30:34;13.03;;;4.90;;
56136;SDS011;42008;52.934;5.884;2024-03-17T04:33:00;12.23;;;5.33;;
56136;SDS011;42008;52.934;5.884;2024-03-17T04:35:28;14.07;;;4.73;;
56136;SDS011;42008;52.934;5.884;2024-03-17T04:37:54;15.47;;;4.77;;
56136;SDS011;42008;52.934;5.884;2024-03-17T04:40:22;15.50;;;5.63;;
56136;SDS011;42008;52.934;5.884;2024-03-17T04:42:48;11.77;;;4.40;;
56136;SDS011;42008;52.934;5.884;2024-03-17T04:45:15;12.90;;;4.50;;
56136;SDS011;42008;52.934;5.884;2024-03-17T04:47:41;15.17;;;4.33;;
56136;SDS011;42008;52.934;5.884;2024-03-17T04:50:07;14.30;;;4.60;;
56136;SDS011;42008;52.934;5.884;2024-03-17T04:52:33;12.67;;;4.47;;
56136;SDS011;42008;52.934;5.884;2024-03-17T04:54:59;12.77;;;3.60;;
56136;SDS011;42008;52.934;5.884;2024-03-17T04:57:25;16.17;;;3.97;;
56136;SDS011;42008;52.934;5.884;2024-03-17T04:59:51;16.97;;;3.93;;
56136;SDS011;42008;52.934;5.884;2024-03-17T05:02:17;13.50;;;3.97;;
56136;SDS011;42008;52.934;5.884;2024-03-17T05:04:43;15.57;;;4.70;;
56136;SDS011;42008;52.934;5.884;2024-03-17T05:07:09;11.70;;;3.67;;
56136;SDS011;42008;52.934;5.884;2024-03-17T05:09:35;13.53;;;4.20;;
56136;SDS011;42008;52.934;5.884;2024-03-17T05:12:01;16.17;;;3.83;;
56136;SDS011;42008;52.934;5.884;2024-03-17T05:14:27;15.57;;;4.10;;
56136;SDS011;42008;52.934;5.884;2024-03-17T05:16:53;14.53;;;4.27;;
56136;SDS011;42008;52.934;5.884;2024-03-17T05:19:19;20.07;;;5.13;;
56136;SDS011;42008;52.934;5.884;2024-03-17T05:21:45;16.53;;;4.07;;
56136;SDS011;42008;52.934;5.884;2024-03-17T05:24:11;14.23;;;4.00;;
56136;SDS011;42008;52.934;5.884;2024-03-17T05:26:38;14.57;;;3.50;;
56136;SDS011;42008;52.934;5.884;2024-03-17T05:29:04;14.53;;;3.93;;
56136;SDS011;42008;52.934;5.884;2024-03-17T05:31:30;14.30;;;4.10;;
56136;SDS011;42008;52.934;5.884;2024-03-17T05:33:56;17.57;;;4.80;;
56136;SDS011;42008;52.934;5.884;2024-03-17T05:36:22;14.73;;;4.10;;
56136;SDS011;42008;52.934;5.884;2024-03-17T05:38:48;16.27;;;4.90;;
56136;SDS011;42008;52.934;5.884;2024-03-17T05:41:14;15.67;;;4.23;;
56136;SDS011;42008;52.934;5.884;2024-03-17T05:43:40;13.57;;;4.33;;
56136;SDS011;42008;52.934;5.884;2024-03-17T05:46:08;13.80;;;4.70;;
56136;SDS011;42008;52.934;5.884;2024-03-17T05:48:34;13.70;;;3.93;;
56136;SDS011;42008;52.934;5.884;2024-03-17T05:51:04;13.43;;;3.80;;
56136;SDS011;42008;52.934;5.884;2024-03-17T05:53:30;10.10;;;3.70;;
56136;SDS011;42008;52.934;5.884;2024-03-17T05:55:59;13.10;;;4.30;;
56136;SDS011;42008;52.934;5.884;2024-03-17T05:58:26;14.70;;;3.93;;
56136;SDS011;42008;52.934;5.884;2024-03-17T06:00:52;13.63;;;4.47;;
56136;SDS011;42008;52.934;5.884;2024-03-17T06:03:18;14.30;;;4.67;;
56136;SDS011;42008;52.934;5.884;2024-03-17T06:05:44;16.20;;;4.73;;
56136;SDS011;42008;52.934;5.884;2024-03-17T06:08:11;21.70;;;6.10;;
56136;SDS011;42008;52.934;5.884;2024-03-17T06:10:37;14.77;;;5.77;;
56136;SDS011;42008;52.934;5.884;2024-03-17T06:13:05;16.70;;;5.23;;
56136;SDS011;42008;52.934;5.884;2024-03-17T06:15:31;15.30;;;5.10;;
56136;SDS011;42008;52.934;5.884;2024-03-17T06:17:57;16.30;;;4.70;;
56136;SDS011;42008;52.934;5.884;2024-03-17T06:20:24;11.80;;;4.83;;
56136;SDS011;42008;52.934;5.884;2024-03-17T06:22:55;13.23;;;4.60;;
56136;SDS011;42008;52.934;5.884;2024-03-17T06:25:22;13.43;;;4.93;;
56136;SDS011;42008;52.934;5.884;2024-03-17T06:27:51;15.40;;;5.40;;
56136;SDS011;42008;52.934;5.884;2024-03-17T06:30:17;15.20;;;5.70;;
56136;SDS011;42008;52.934;5.884;2024-03-17T06:32:43;17.37;;;5.57;;
56136;SDS011;42008;52.934;5.884;2024-03-17T06:35:13;14.73;;;5.17;;
56136;SDS011;42008;52.934;5.884;2024-03-17T06:37:50;14.63;;;5.40;;
56136;SDS011;42008;52.934;5.884;2024-03-17T06:40:17;16.00;;;6.13;;
56136;SDS011;42008;52.934;5.884;2024-03-17T06:42:43;13.30;;;6.03;;
56136;SDS011;42008;52.934;5.884;2024-03-17T06:45:09;13.80;;;5.90;;
56136;SDS011;42008;52.934;5.884;2024-03-17T06:47:38;13.90;;;6.60;;
56136;SDS011;42008;52.934;5.884;2024-03-17T06:50:05;16.60;;;7.40;;
56136;SDS011;42008;52.934;5.884;2024-03-17T06:52:34;19.67;;;7.73;;
56136;SDS011;42008;52.934;5.884;2024-03-17T06:55:00;16.03;;;7.40;;
56136;SDS011;42008;52.934;5.884;2024-03-17T06:57:27;21.10;;;7.13;;
56136;SDS011;42008;52.934;5.884;2024-03-17T06:59:53;18.23;;;7.20;;
56136;SDS011;42008;52.934;5.884;2024-03-17T07:02:19;20.47;;;7.80;;
56136;SDS011;42008;52.934;5.884;2024-03-17T07:04:48;19.00;;;7.90;;
56136;SDS011;42008;52.934;5.884;2024-03-17T07:07:14;17.20;;;7.50;;
56136;SDS011;42008;52.934;5.884;2024-03-17T07:09:40;16.87;;;7.60;;
56136;SDS011;42008;52.934;5.884;2024-03-17T07:12:09;16.77;;;8.07;;
56136;SDS011;42008;52.934;5.884;2024-03-17T07:14:36;20.03;;;8.07;;
56136;SDS011;42008;52.934;5.884;2024-03-17T07:17:03;14.33;;;7.47;;
56136;SDS011;42008;52.934;5.884;2024-03-17T07:19:29;18.13;;;7.57;;
56136;SDS011;42008;52.934;5.884;2024-03-17T07:22:00;15.27;;;8.17;;
56136;SDS011;42008;52.934;5.884;2024-03-17T07:24:26;17.90;;;7.80;;
56136;SDS011;42008;52.934;5.884;2024-03-17T07:26:52;19.30;;;8.93;;
56136;SDS011;42008;52.934;5.884;2024-03-17T07:29:18;16.50;;;8.47;;
56136;SDS011;42008;52.934;5.884;2024-03-17T07:31:45;18.97;;;8.70;;
56136;SDS011;42008;52.934;5.884;2024-03-17T07:34:11;17.80;;;7.93;;
56136;SDS011;42008;52.934;5.884;2024-03-17T07:36:37;19.23;;;7.10;;
56136;SDS011;42008;52.934;5.884;2024-03-17T07:39:04;14.33;;;8.07;;
56136;SDS011;42008;52.934;5.884;2024-03-17T07:41:32;16.60;;;7.63;;
56136;SDS011;42008;52.934;5.884;2024-03-17T07:43:58;17.57;;;7.93;;
56136;SDS011;42008;52.934;5.884;2024-03-17T07:46:24;15.60;;;7.93;;
56136;SDS011;42008;52.934;5.884;2024-03-17T07:48:50;15.03;;;7.53;;
56136;SDS011;42008;52.934;5.884;2024-03-17T07:51:16;16.07;;;7.77;;
56136;SDS011;42008;52.934;5.884;2024-03-17T07:53:42;18.93;;;8.00;;
56136;SDS011;42008;52.934;5.884;2024-03-17T07:56:17;17.63;;;8.97;;
56136;SDS011;42008;52.934;5.884;2024-03-17T07:58:43;16.30;;;9.73;;
56136;SDS011;42008;52.934;5.884;2024-03-17T08:01:10;14.60;;;8.63;;
56136;SDS011;42008;52.934;5.884;2024-03-17T08:03:37;17.67;;;9.10;;
56136;SDS011;42008;52.934;5.884;2024-03-17T08:06:04;17.13;;;8.80;;
56136;SDS011;42008;52.934;5.884;2024-03-17T08:08:31;17.47;;;9.50;;
56136;SDS011;42008;52.934;5.884;2024-03-17T08:10:57;17.13;;;9.27;;
56136;SDS011;42008;52.934;5.884;2024-03-17T08:13:23;18.00;;;10.50;;
56136;SDS011;42008;52.934;5.884;2024-03-17T08:15:56;16.67;;;10.00;;
56136;SDS011;42008;52.934;5.884;2024-03-17T08:18:23;17.67;;;10.23;;
56136;SDS011;42008;52.934;5.884;2024-03-17T08:20:49;19.23;;;10.17;;
56136;SDS011;42008;52.934;5.884;2024-03-17T08:23:15;20.87;;;10.43;;
56136;SDS011;42008;52.934;5.884;2024-03-17T08:25:41;16.10;;;10.30;;
56136;SDS011;42008;52.934;5.884;2024-03-17T08:28:07;21.87;;;10.73;;
56136;SDS011;42008;52.934;5.884;2024-03-17T08:30:33;15.83;;;10.10;;
56136;SDS011;42008;52.934;5.884;2024-03-17T08:33:00;20.30;;;10.80;;
56136;SDS011;42008;52.934;5.884;2024-03-17T08:35:26;22.00;;;11.37;;
56136;SDS011;42008;52.934;5.884;2024-03-17T08:37:52;16.93;;;10.20;;
56136;SDS011;42008;52.934;5.884;2024-03-17T08:40:21;19.47;;;10.53;;
56136;SDS011;42008;52.934;5.884;2024-03-17T08:42:47;16.43;;;10.77;;
56136;SDS011;42008;52.934;5.884;2024-03-17T08:45:13;18.33;;;10.97;;
56136;SDS011;42008;52.934;5.884;2024-03-17T08:47:40;21.30;;;11.37;;
56136;SDS011;42008;52.934;5.884;2024-03-17T08:50:06;17.10;;;10.70;;
56136;SDS011;42008;52.934;5.884;2024-03-17T08:52:33;19.00;;;11.10;;
56136;SDS011;42008;52.934;5.884;2024-03-17T08:54:59;17.07;;;11.20;;
56136;SDS011;42008;52.934;5.884;2024-03-17T08:57:29;20.00;;;10.63;;
56136;SDS011;42008;52.934;5.884;2024-03-17T08:59:55;19.03;;;11.00;;
56136;SDS011;42008;52.934;5.884;2024-03-17T09:02:21;17.47;;;10.50;;
56136;SDS011;42008;52.934;5.884;2024-03-17T09:04:47;19.67;;;11.20;;
56136;SDS011;42008;52.934;5.884;2024-03-17T09:07:13;18.80;;;10.90;;
56136;SDS011;42008;52.934;5.884;2024-03-17T09:09:41;18.20;;;10.50;;
56136;SDS011;42008;52.934;5.884;2024-03-17T09:12:07;16.30;;;11.50;;
56136;SDS011;42008;52.934;5.884;2024-03-17T09:14:33;19.30;;;11.00;;
56136;SDS011;42008;52.934;5.884;2024-03-17T09:16:59;20.03;;;11.43;;
56136;SDS011;42008;52.934;5.884;2024-03-17T09:19:25;21.93;;;10.97;;
56136;SDS011;42008;52.934;5.884;2024-03-17T09:21:51;17.40;;;11.30;;
56136;SDS011;42008;52.934;5.884;2024-03-17T09:24:17;17.90;;;10.23;;
56136;SDS011;42008;52.934;5.884;2024-03-17T09:26:43;17.77;;;11.13;;
56136;SDS011;42008;52.934;5.884;2024-03-17T09:29:09;14.67;;;10.00;;
56136;SDS011;42008;52.934;5.884;2024-03-17T09:31:35;19.57;;;10.77;;
56136;SDS011;42008;52.934;5.884;2024-03-17T09:34:02;17.17;;;10.03;;
56136;SDS011;42008;52.934;5.884;2024-03-17T09:36:28;22.70;;;11.10;;
56136;SDS011;42008;52.934;5.884;2024-03-17T09:38:54;16.13;;;10.03;;
56136;SDS011;42008;52.934;5.884;2024-03-17T09:41:21;16.30;;;10.33;;
56136;SDS011;42008;52.934;5.884;2024-03-17T09:43:47;14.73;;;9.50;;
56136;SDS011;42008;52.934;5.884;2024-03-17T09:46:16;17.60;;;10.43;;
56136;SDS011;42008;52.934;5.884;2024-03-17T09:48:43;15.50;;;9.80;;
56136;SDS011;42008;52.934;5.884;2024-03-17T09:51:10;14.93;;;10.70;;
56136;SDS011;42008;52.934;5.884;2024-03-17T09:53:42;12.70;;;9.20;;
56136;SDS011;42008;52.934;5.884;2024-03-17T09:56:11;17.47;;;9.70;;
56136;SDS011;42008;52.934;5.884;2024-03-17T09:58:41;17.97;;;9.70;;
56136;SDS011;42008;52.934;5.884;2024-03-17T10:01:07;13.37;;;8.83;;
56136;SDS011;42008;52.934;5.884;2024-03-17T10:06:06;17.27;;;9.13;;
56136;SDS011;42008;52.934;5.884;2024-03-17T10:08:32;15.80;;;9.17;;
56136;SDS011;42008;52.934;5.884;2024-03-17T10:10:59;17.67;;;9.53;;
56136;SDS011;42008;52.934;5.884;2024-03-17T10:13:25;13.87;;;9.03;;
56136;SDS011;42008;52.934;5.884;2024-03-17T10:15:52;13.17;;;8.70;;
56136;SDS011;42008;52.934;5.884;2024-03-17T10:18:22;15.20;;;8.73;;
56136;SDS011;42008;52.934;5.884;2024-03-17T10:20:48;15.77;;;8.40;;
56136;SDS011;42008;52.934;5.884;2024-03-17T10:23:21;13.90;;;8.33;;
56136;SDS011;42008;52.934;5.884;2024-03-17T10:25:47;12.93;;;8.17;;
56136;SDS011;42008;52.934;5.884;2024-03-17T10:28:14;11.13;;;7.63;;
56136;SDS011;42008;52.934;5.884;2024-03-17T10:30:40;10.73;;;7.53;;
56136;SDS011;42008;52.934;5.884;2024-03-17T10:33:07;13.07;;;8.80;;
56136;SDS011;42008;52.934;5.884;2024-03-17T10:35:35;12.13;;;7.77;;
56136;SDS011;42008;52.934;5.884;2024-03-17T10:38:04;17.73;;;8.37;;
56136;SDS011;42008;52.934;5.884;2024-03-17T10:40:31;15.13;;;8.17;;
56136;SDS011;42008;52.934;5.884;2024-03-17T10:42:59;11.70;;;7.87;;
56136;SDS011;42008;52.934;5.884;2024-03-17T10:45:25;12.97;;;7.70;;
56136;SDS011;42008;52.934;5.884;2024-03-17T10:47:51;10.77;;;7.60;;
56136;SDS011;42008;52.934;5.884;2024-03-17T10:50:19;12.20;;;7.90;;
56136;SDS011;42008;52.934;5.884;2024-03-17T10:52:46;15.83;;;7.90;;
56136;SDS011;42008;52.934;5.884;2024-03-17T10:55:19;12.43;;;7.53;;
56136;SDS011;42008;52.934;5.884;2024-03-17T10:57:47;15.83;;;6.53;;
56136;SDS011;42008;52.934;5.884;2024-03-17T11:00:14;10.93;;;7.07;;
56136;SDS011;42008;52.934;5.884;2024-03-17T11:02:45;11.40;;;6.50;;
56136;SDS011;42008;52.934;5.884;2024-03-17T11:07:41;9.27;;;6.17;;
56136;SDS011;42008;52.934;5.884;2024-03-17T11:10:14;10.87;;;6.30;;
56136;SDS011;42008;52.934;5.884;2024-03-17T11:17:46;9.80;;;5.60;;
56136;SDS011;42008;52.934;5.884;2024-03-17T11:20:17;9.20;;;6.23;;
56136;SDS011;42008;52.934;5.884;2024-03-17T11:22:44;7.80;;;5.63;;
56136;SDS011;42008;52.934;5.884;2024-03-17T11:25:36;9.07;;;5.33;;
56136;SDS011;42008;52.934;5.884;2024-03-17T11:27:57;8.83;;;5.33;;
56136;SDS011;42008;52.934;5.884;2024-03-17T11:35:54;9.17;;;5.13;;
56136;SDS011;42008;52.934;5.884;2024-03-17T11:49:18;8.50;;;5.23;;
56136;SDS011;42008;52.934;5.884;2024-03-17T11:51:45;12.03;;;6.10;;
56136;SDS011;42008;52.934;5.884;2024-03-17T11:54:30;8.57;;;6.10;;
56136;SDS011;42008;52.934;5.884;2024-03-17T11:57:00;9.50;;;6.10;;
56136;SDS011;42008;52.934;5.884;2024-03-17T11:59:27;9.20;;;6.00;;
56136;SDS011;42008;52.934;5.884;2024-03-17T12:01:54;10.37;;;6.70;;
56136;SDS011;42008;52.934;5.884;2024-03-17T12:04:20;11.57;;;6.20;;
56136;SDS011;42008;52.934;5.884;2024-03-17T12:06:47;8.77;;;6.30;;
56136;SDS011;42008;52.934;5.884;2024-03-17T12:11:48;12.55;;;6.50;;
56136;SDS011;42008;52.934;5.884;2024-03-17T12:14:20;9.53;;;6.60;;
56136;SDS011;42008;52.934;5.884;2024-03-17T12:16:53;8.75;;;6.78;;
56136;SDS011;42008;52.934;5.884;2024-03-17T12:19:19;14.27;;;7.30;;
56136;SDS011;42008;52.934;5.884;2024-03-17T12:21:49;10.30;;;6.20;;
56136;SDS011;42008;52.934;5.884;2024-03-17T12:24:17;8.93;;;6.50;;
56136;SDS011;42008;52.934;5.884;2024-03-17T12:26:44;12.57;;;7.10;;
56136;SDS011;42008;52.934;5.884;2024-03-17T12:29:23;9.07;;;6.13;;
56136;SDS011;42008;52.934;5.884;2024-03-17T12:31:59;12.17;;;7.53;;
56136;SDS011;42008;52.934;5.884;2024-03-17T12:34:27;11.43;;;6.67;;
56136;SDS011;42008;52.934;5.884;2024-03-17T12:36:53;9.93;;;6.50;;
56136;SDS011;42008;52.934;5.884;2024-03-17T12:39:21;11.03;;;6.90;;
56136;SDS011;42008;52.934;5.884;2024-03-17T12:47:09;11.13;;;6.93;;
56136;SDS011;42008;52.934;5.884;2024-03-17T12:49:44;12.93;;;7.30;;
56136;SDS011;42008;52.934;5.884;2024-03-17T12:52:16;11.30;;;7.23;;
56136;SDS011;42008;52.934;5.884;2024-03-17T12:57:15;10.73;;;7.05;;
56136;SDS011;42008;52.934;5.884;2024-03-17T13:00:00;12.47;;;7.40;;
56136;SDS011;42008;52.934;5.884;2024-03-17T13:02:44;11.40;;;7.77;;
56136;SDS011;42008;52.934;5.884;2024-03-17T13:05:17;11.97;;;7.03;;
56136;SDS011;42008;52.934;5.884;2024-03-17T13:07:45;11.10;;;7.63;;
56136;SDS011;42008;52.934;5.884;2024-03-17T13:10:14;13.50;;;7.77;;
56136;SDS011;42008;52.934;5.884;2024-03-17T13:12:41;12.77;;;7.57;;
56136;SDS011;42008;52.934;5.884;2024-03-17T13:15:17;11.27;;;7.33;;
56136;SDS011;42008;52.934;5.884;2024-03-17T13:17:43;10.77;;;7.03;;
56136;SDS011;42008;52.934;5.884;2024-03-17T13:20:16;10.13;;;7.40;;
56136;SDS011;42008;52.934;5.884;2024-03-17T13:22:45;11.87;;;7.23;;
56136;SDS011;42008;52.934;5.884;2024-03-17T13:25:15;13.37;;;7.60;;
56136;SDS011;42008;52.934;5.884;2024-03-17T13:27:42;9.63;;;7.07;;
56136;SDS011;42008;52.934;5.884;2024-03-17T13:30:08;10.97;;;7.60;;
56136;SDS011;42008;52.934;5.884;2024-03-17T13:32:35;12.13;;;8.03;;
56136;SDS011;42008;52.934;5.884;2024-03-17T13:35:01;12.43;;;7.40;;
56136;SDS011;42008;52.934;5.884;2024-03-17T13:37:28;12.00;;;6.90;;
56136;SDS011;42008;52.934;5.884;2024-03-17T13:39:54;9.20;;;6.70;;
56136;SDS011;42008;52.934;5.884;2024-03-17T13:42:20;12.53;;;6.87;;
56136;SDS011;42008;52.934;5.884;2024-03-17T13:44:46;11.30;;;7.43;;
56136;SDS011;42008;52.934;5.884;2024-03-17T13:47:16;9.00;;;6.90;;
56136;SDS011;42008;52.934;5.884;2024-03-17T13:49:43;11.87;;;7.00;;
56136;SDS011;42008;52.934;5.884;2024-03-17T13:52:09;12.63;;;6.63;;
56136;SDS011;42008;52.934;5.884;2024-03-17T13:54:36;10.27;;;6.93;;
56136;SDS011;42008;52.934;5.884;2024-03-17T13:57:02;11.57;;;7.23;;
56136;SDS011;42008;52.934;5.884;2024-03-17T13:59:30;9.83;;;6.60;;
56136;SDS011;42008;52.934;5.884;2024-03-17T14:01:57;11.23;;;7.13;;
56136;SDS011;42008;52.934;5.884;2024-03-17T14:04:23;11.33;;;6.83;;
56136;SDS011;42008;52.934;5.884;2024-03-17T14:06:50;8.60;;;6.40;;
56136;SDS011;42008;52.934;5.884;2024-03-17T14:09:16;11.50;;;6.57;;
56136;SDS011;42008;52.934;5.884;2024-03-17T14:11:46;10.13;;;6.73;;
56136;SDS011;42008;52.934;5.884;2024-03-17T14:14:14;9.27;;;6.83;;
56136;SDS011;42008;52.934;5.884;2024-03-17T14:16:40;10.60;;;6.93;;
56136;SDS011;42008;52.934;5.884;2024-03-17T14:19:07;10.47;;;7.40;;
56136;SDS011;42008;52.934;5.884;2024-03-17T14:21:33;9.80;;;6.40;;
56136;SDS011;42008;52.934;5.884;2024-03-17T14:23:59;9.33;;;6.60;;
56136;SDS011;42008;52.934;5.884;2024-03-17T14:26:28;10.80;;;7.17;;
56136;SDS011;42008;52.934;5.884;2024-03-17T14:28:54;10.47;;;7.17;;
56136;SDS011;42008;52.934;5.884;2024-03-17T14:31:21;15.17;;;7.03;;
56136;SDS011;42008;52.934;5.884;2024-03-17T14:33:47;10.97;;;6.70;;
56136;SDS011;42008;52.934;5.884;2024-03-17T14:36:13;9.10;;;6.70;;
56136;SDS011;42008;52.934;5.884;2024-03-17T14:38:40;8.80;;;6.50;;
56136;SDS011;42008;52.934;5.884;2024-03-17T14:41:08;11.87;;;7.10;;
56136;SDS011;42008;52.934;5.884;2024-03-17T14:43:34;8.90;;;6.10;;
56136;SDS011;42008;52.934;5.884;2024-03-17T14:46:03;11.53;;;6.40;;
56136;SDS011;42008;52.934;5.884;2024-03-17T14:48:29;9.13;;;5.93;;
56136;SDS011;42008;52.934;5.884;2024-03-17T14:50:55;8.27;;;6.10;;
56136;SDS011;42008;52.934;5.884;2024-03-17T14:53:21;7.93;;;5.90;;
56136;SDS011;42008;52.934;5.884;2024-03-17T14:55:47;8.27;;;6.10;;
56136;SDS011;42008;52.934;5.884;2024-03-17T14:58:13;8.10;;;5.83;;
56136;SDS011;42008;52.934;5.884;2024-03-17T15:00:40;11.77;;;5.90;;
56136;SDS011;42008;52.934;5.884;2024-03-17T15:03:06;8.73;;;6.33;;
56136;SDS011;42008;52.934;5.884;2024-03-17T15:05:33;9.67;;;6.23;;
56136;SDS011;42008;52.934;5.884;2024-03-17T15:07:59;7.90;;;5.70;;
56136;SDS011;42008;52.934;5.884;2024-03-17T15:10:27;10.20;;;6.27;;
56136;SDS011;42008;52.934;5.884;2024-03-17T15:12:54;9.07;;;6.27;;